x

Frying Pan Shoals, Nc Buoy (41013) Weather Station

5:20pm - Tue 25th Jul 2017 All times are EDT. -4 hours from GMT.

  • Wind
    13mph, 16mph gusts
  • Sea Temp 83°f
  • Air Temp 83°f
  • Sea Pressure 1017mb
  • Frying Pan Shoals, Nc Buoy
  • Frying Pan Shoals, Nc Buoy

More Historic Weather Station data

Upgrade to MSW Pro to gain access to the past 30 days of data for over 8000 Wavebouys and Weather Stations around the globe.

Join Pro

Comparision Forecast

View Surf forecast
   
Tue 07/25 5:20pm  -   -   -  13 16 mph 1017mb 83f 83f
5:10pm  -   -   -  13 16 mph 1017mb 83f 83f
5:00pm  -   -   -  11 16 mph 1017mb 83f 83f
4:50pm 3.5ft 6s 5s 11 13 mph 1017.3mb 83f 83f
4:40pm 3.5ft  -  5s 11 13 mph 1017.3mb 83f 83f
4:30pm  -   -   -  11 13 mph 1017.5mb 83f 83f
4:20pm  -   -   -  11 13 mph 1017.5mb 83f 83f
4:10pm  -   -   -  11 13 mph 1017.6mb 83f 83f
4:00pm  -   -   -  11 13 mph 1017.6mb 83f 83f
3:50pm 3.5ft 6s 5s 9 11 mph 1017.8mb 83f 82f
3:40pm  -   -   -  9 11 mph 1017.9mb 83f 82f
3:30pm  -   -   -  9 11 mph 1017.8mb 83f 82f
3:20pm  -   -   -  9 11 mph 1017.9mb 83f 82f
3:10pm  -   -   -  9 11 mph 1017.8mb 83f 82f
3:00pm  -   -   -  9 11 mph 1017.9mb 83f 82f
2:50pm 3.5ft 6s 5s 9 11 mph 1017.8mb 83f 82f
2:40pm  -   -   -  9 11 mph 1018mb 83f 82f
2:30pm  -   -   -  9 11 mph 1017.9mb 83f 82f
2:20pm  -   -   -  9 11 mph 1017.9mb 83f 82f
2:10pm  -   -   -  9 11 mph 1017.9mb 83f 82f
2:00pm  -   -   -  9 9 mph 1017.8mb 83f 82f
1:50pm 4ft 6s 5s 9 11 mph 1017.9mb 82f 82f
1:40pm  -   -   -  9 11 mph 1017.9mb 82f 82f
1:30pm  -   -   -  9 11 mph 1017.8mb 82f 82f
1:20pm  -   -   -  9 11 mph 1017.8mb 82f 82f
1:10pm  -   -   -  9 11 mph 1018mb 82f 82f
1:00pm  -   -   -  9 11 mph 1018mb 82f 82f
12:50pm 4ft 6s 5s 9 11 mph 1018mb 82f 82f
12:40pm 4ft  -  5s 9 11 mph 1018mb 82f 82f
12:30pm  -   -   -  9 11 mph 1018mb 82f 82f
12:20pm  -   -   -  9 9 mph 1018mb 82f 82f
12:10pm  -   -   -  9 11 mph 1018mb 82f 81f
12:00pm  -   -   -  9 11 mph 1018mb 82f 81f
11:50am 3.5ft 7s 5s 9 11 mph 1018mb 82f 81f
11:40am  -   -   -  9 11 mph 1017.8mb 82f 81f
11:30am  -   -   -  9 11 mph 1017.8mb 82f 81f
11:20am  -   -   -  9 11 mph 1017.8mb - 81f
11:10am  -   -   -  9 11 mph 1017.9mb 82f 81f
11:00am  -   -   -  9 11 mph 1018mb 82f 82f
10:50am 3.5ft 6s 5s 9 11 mph 1017.9mb 82f 82f
10:40am  -   -   -  9 11 mph 1018mb 82f 82f
10:30am  -   -   -  9 11 mph 1018mb 82f 82f
10:20am  -   -   -  11 13 mph 1018mb 82f 82f
10:10am  -   -   -  11 11 mph 1017.9mb 82f 82f
10:00am  -   -   -  9 13 mph 1017.9mb 82f 81f
9:50am 4.5ft 6s 5s 11 13 mph 1017.8mb 82f 82f
9:40am  -   -   -  13 16 mph 1017.9mb 82f 81f
9:30am  -   -   -  13 16 mph 1017.8mb 82f 82f
9:20am  -   -   -  13 16 mph 1017.8mb 82f 81f
9:10am  -   -   -  13 18 mph 1017.6mb 82f 81f
9:00am  -   -   -  16 18 mph 1017.5mb 82f 81f
8:50am 4.5ft 6s 5s 16 18 mph 1017.3mb 82f 81f
8:40am  -   -   -  16 18 mph 1017.1mb 82f 82f
8:30am  -   -   -  16 18 mph 1017.3mb 82f 82f
8:20am  -   -   -  16 20 mph 1017.1mb 82f 82f
8:10am  -   -   -  16 20 mph 1017.1mb 82f 82f
8:00am  -   -   -  13 18 mph 1017.1mb 82f 82f
7:50am 4.5ft 6s 5s 16 18 mph 1017mb 82f 82f
7:40am 4.5ft  -  5s 16 18 mph 1017mb 82f 82f
7:30am  -   -   -  13 18 mph 1017.1mb 82f 82f
7:20am  -   -   -  13 18 mph 1017.1mb 82f 82f
7:10am  -   -   -  16 18 mph 1017.1mb 82f 82f
7:00am  -   -   -  13 16 mph 1017.1mb 82f 82f
6:50am 4.5ft 6s 5s 13 16 mph 1017mb 82f 82f
6:40am 4.5ft  -  5s 13 16 mph 1016.9mb 82f 82f
6:30am  -   -   -  13 16 mph 1016.8mb - 82f
6:20am  -   -   -  11 16 mph 1016.6mb 82f 82f
6:10am  -   -   -  9 11 mph 1016.6mb 82f 82f
6:00am  -   -   -  9 11 mph 1016.4mb 82f 82f
5:50am 4ft 6s 5s 9 11 mph 1016.4mb 82f 81f
5:40am 4ft  -  5s 7 9 mph 1016.4mb 82f 81f
5:30am  -   -   -  7 9 mph 1016.1mb 82f 81f
5:20am  -   -   -  7 9 mph 1016mb 82f 81f
5:10am  -   -   -  7 9 mph 1016mb 82f 81f
5:00am  -   -   -  7 9 mph 1016mb 82f 81f
4:50am 4.5ft 6s 5s 9 11 mph 1015.9mb 82f 81f
4:40am 4.5ft  -  5s 9 11 mph 1015.9mb 82f 81f
4:30am  -   -   -  9 13 mph 1015.9mb 82f 81f
4:20am  -   -   -  11 13 mph 1015.8mb 82f 81f
4:10am  -   -   -  13 16 mph 1015.8mb 82f 81f
4:00am  -   -   -  13 16 mph 1015.8mb 82f 81f
3:50am 4.5ft 6s 5s 13 18 mph 1015.9mb 82f 81f
3:40am  -   -   -  13 18 mph 1016mb 82f 81f
3:30am  -   -   -  16 18 mph 1016.3mb 82f 81f
3:20am  -   -   -  16 20 mph 1016.4mb 82f 82f
3:10am  -   -   -  16 20 mph 1016.3mb 82f 81f
3:00am  -   -   -  16 22 mph 1016.4mb 82f 81f
2:50am 4.5ft 7s 5s 18 20 mph 1016.3mb 82f 81f
2:40am 4.5ft  -  5s 16 20 mph 1016mb 82f 82f
2:30am  -   -   -  16 18 mph 1016mb 82f 81f
2:20am  -   -   -  16 20 mph 1016mb 82f 81f
2:10am  -   -   -  16 18 mph 1015.9mb 82f 81f
2:00am  -   -   -  16 20 mph 1016mb 82f 81f
1:50am 5ft 7s 5s 16 18 mph 1016.1mb 82f 81f
1:40am 5ft  -  5s 16 20 mph 1016.1mb 82f 81f
1:30am  -   -   -  16 20 mph 1016.1mb 82f 81f
1:20am  -   -   -  16 20 mph 1016mb 82f 81f
1:10am  -   -   -  16 20 mph 1016mb 82f 82f
1:00am  -   -   -  18 20 mph 1016mb 82f 82f
12:50am 4.5ft 7s 5s 18 20 mph 1016mb 82f 82f
12:40am 4.5ft  -  5s 18 20 mph 1015.9mb 82f 82f
12:30am  -   -   -  18 22 mph 1015.9mb 82f 82f
12:20am  -   -   -  18 25 mph 1015.9mb 82f 83f
12:10am  -   -   -  18 22 mph 1015.9mb 82f 83f
12:00am  -   -   -  18 20 mph 1015.9mb 82f 83f
Mon 07/24 11:50pm 5ft 7s 5s 18 22 mph 1015.8mb 82f 83f
11:40pm 5ft  -  5s 20 22 mph 1015.8mb 82f 83f
11:30pm  -   -   -  20 25 mph 1015.6mb 82f 83f
11:20pm  -   -   -  18 25 mph 1015.8mb 82f 83f
11:10pm  -   -   -  20 25 mph 1015.9mb 82f 83f
11:00pm  -   -   -  20 25 mph 1015.9mb 82f 83f
10:50pm 5ft 7s 5s 20 25 mph 1015.9mb 82f 83f
10:40pm 5ft  -  5s 20 25 mph 1015.9mb 82f 83f
10:30pm  -   -   -  20 27 mph 1015.9mb 82f 83f
10:20pm  -   -   -  20 25 mph 1015.5mb 82f 83f
10:10pm  -   -   -  20 25 mph 1015.5mb 82f 83f
10:00pm  -   -   -  20 25 mph 1015.4mb 82f 83f
9:50pm 4.5ft 6s 5s 20 25 mph 1015.3mb 82f 83f
9:40pm 4.5ft  -  5s 20 25 mph 1015.3mb 82f 83f
9:30pm  -   -   -  20 25 mph 1015.3mb 82f 83f
9:20pm  -   -   -  20 25 mph 1015mb 82f 82f
9:10pm  -   -   -  18 25 mph 1015.1mb 82f 82f
9:00pm  -   -   -  18 22 mph 1015mb 82f 82f
8:50pm 5ft 6s 5s 20 25 mph 1015mb 82f 83f
8:40pm 5ft  -  5s 20 22 mph 1015.1mb 82f 83f
8:30pm  -   -   -  20 25 mph 1015.1mb 82f 83f
8:20pm  -   -   -  20 25 mph 1015.1mb 82f 83f
8:10pm  -   -   -  20 25 mph 1015.3mb 82f 83f
8:00pm  -   -   -  20 27 mph 1015mb 82f 83f
7:50pm 5ft 7s 5s 20 25 mph 1014.8mb 82f 83f
7:40pm  -   -   -  20 25 mph 1014.8mb 82f 83f
7:30pm  -   -   -  22 27 mph 1014.6mb 82f 83f
7:20pm  -   -   -  22 27 mph 1014.5mb 82f 83f
7:10pm  -   -   -  20 27 mph 1014.3mb 82f 83f
7:00pm  -   -   -  20 22 mph 1014mb 82f 82f
6:50pm 5.5ft 6s 5s 20 25 mph 1013.8mb 82f 83f
6:40pm 5.5ft  -  5s 20 25 mph 1013.5mb 82f 83f
6:30pm  -   -   -  20 25 mph 1013.5mb - 82f
6:20pm  -   -   -  20 25 mph 1013.4mb 82f 82f
6:10pm  -   -   -  20 25 mph 1013.4mb 82f 82f
6:00pm  -   -   -  20 27 mph 1013.4mb 82f 82f
5:50pm 4.5ft 7s 5s 20 25 mph 1013.5mb 82f 82f
5:40pm 4.5ft  -  5s 20 25 mph 1013.5mb 82f 82f
5:30pm  -   -   -  22 27 mph 1013.4mb 82f 82f
5:20pm  -   -   -  20 25 mph 1013.5mb 82f 82f
5:10pm  -   -   -  20 25 mph 1013.5mb 82f 82f
5:00pm  -   -   -  18 22 mph 1013.5mb 82f 82f
4:50pm 5ft 6s 5s 20 25 mph 1013.6mb 82f 82f
4:40pm 5ft  -  5s 22 25 mph 1013.6mb 82f 82f
4:30pm  -   -   -  20 25 mph 1013.8mb 82f 82f
4:20pm  -   -   -  18 22 mph 1013.9mb 82f 82f
4:10pm  -   -   -  18 22 mph 1014mb 82f 81f
4:00pm  -   -   -  18 22 mph 1014mb 82f 82f
3:50pm 5ft 7s 5s 18 20 mph 1014.1mb 82f 82f
3:40pm 5ft  -  5s 20 25 mph 1014.3mb 82f 82f
3:30pm  -   -   -  20 27 mph 1014.5mb 82f 82f
3:20pm  -   -   -  20 25 mph 1014.5mb 82f 81f
3:10pm  -   -   -  18 22 mph 1014.5mb - 81f
3:00pm  -   -   -  18 20 mph 1014.5mb 82f 82f
2:50pm 6ft 7s 5s 18 20 mph 1014.5mb 82f 81f
2:40pm 6ft  -  5s 18 22 mph 1014.5mb 82f 82f
2:30pm  -   -   -  18 20 mph 1014.5mb 82f 81f
2:20pm  -   -   -  18 22 mph 1014.5mb 82f 81f
2:10pm  -   -   -  18 22 mph 1014.5mb 82f 81f
2:00pm  -   -   -  20 25 mph 1014.5mb 82f 81f
1:50pm 6ft 6s 5s 18 20 mph 1014.5mb 82f 81f
1:40pm 6ft  -  5s 18 22 mph 1014.8mb 82f 81f
1:30pm  -   -   -  18 22 mph 1014.9mb 82f 82f
1:20pm  -   -   -  20 22 mph 1014.8mb 82f 82f
1:10pm  -   -   -  20 25 mph 1014.6mb 82f 82f
1:00pm  -   -   -  20 25 mph 1014.8mb 82f 82f
12:50pm 5.5ft 6s 5s 20 27 mph 1014.6mb 82f 82f
12:40pm  -   -   -  22 25 mph 1014.5mb 82f 82f
12:30pm  -   -   -  20 25 mph 1014.6mb - 82f
12:20pm  -   -   -  22 27 mph 1014.8mb 82f 82f
12:10pm  -   -   -  22 27 mph 1014.8mb 82f 82f
12:00pm  -   -   -  20 27 mph 1014.8mb 82f 82f
11:50am 5ft 7s 5s 22 27 mph 1014.8mb 82f 82f
11:40am 5ft  -  5s 22 27 mph 1014.8mb 82f 82f
11:30am  -   -   -  22 27 mph 1014.9mb 82f 82f
11:20am  -   -   -  20 25 mph 1015mb 82f 82f
11:10am  -   -   -  20 27 mph 1015mb 82f 82f
11:00am  -   -   -  20 25 mph 1015mb 82f 82f
10:50am 5ft 7s 5s 20 25 mph 1014.8mb 82f 82f
10:40am 5ft  -  5s 20 25 mph 1014.6mb 82f 82f
10:30am  -   -   -  20 25 mph 1014.5mb 82f 82f
10:20am  -   -   -  22 25 mph 1014.5mb 82f 82f
10:10am  -   -   -  20 25 mph 1014.5mb 82f 82f
10:00am  -   -   -  20 25 mph 1014.3mb 82f 82f
9:50am 5.5ft 6s 5s 20 25 mph 1014.3mb 82f 82f
9:40am 5.5ft  -  5s 20 25 mph 1014.4mb 82f 82f
9:30am  -   -   -  20 27 mph 1014.5mb 82f 82f
9:20am  -   -   -  20 25 mph 1014.5mb 82f 82f
9:10am  -   -   -  20 25 mph 1014.5mb 82f 82f
9:00am  -   -   -  20 25 mph 1014.4mb 82f 82f
8:50am 5ft 6s 5s 20 27 mph 1014.4mb 82f 82f
8:40am  -   -   -  20 27 mph 1014.1mb 82f 82f
8:30am  -   -   -  22 27 mph 1014mb 82f 82f
8:20am  -   -   -  20 27 mph 1014mb 82f 82f
8:10am  -   -   -  22 25 mph 1014mb 82f 82f
8:00am  -   -   -  22 27 mph 1014mb 82f 82f
7:50am 5.5ft 7s 5s 20 25 mph 1014mb 82f 82f
7:40am 5.5ft  -  5s 22 27 mph 1013.9mb 82f 82f
7:30am  -   -   -  20 25 mph 1013.9mb 82f 82f
7:20am  -   -   -  18 25 mph 1013.8mb 82f 82f
7:10am  -   -   -  20 25 mph 1013.6mb 82f 82f
7:00am  -   -   -  20 27 mph 1013.8mb 82f 82f
6:50am 6ft 7s 5s 20 25 mph 1013.6mb 82f 81f
6:40am 6ft  -  5s 20 27 mph 1013.5mb 82f 81f
6:30am  -   -   -  22 27 mph 1013.4mb 82f 81f
6:20am  -   -   -  20 27 mph 1013.4mb 82f 80f
6:10am  -   -   -  20 27 mph 1013.5mb 82f 78f
6:00am  -   -   -  22 31 mph 1013.6mb - 77f
5:50am 6.5ft 7s 5s 29 38 mph 1013.4mb 82f 78f
5:40am 6.5ft  -  5s 29 40 mph 1013.1mb 82f 80f
5:30am  -   -   -  25 29 mph 1012.9mb 82f 82f
5:20am  -   -   -  22 29 mph 1012.9mb 82f 82f
5:10am  -   -   -  22 29 mph 1013mb 82f 82f
5:00am  -   -   -  25 29 mph 1012.8mb 82f 82f
4:50am 6ft 6s 5s 25 29 mph 1012.5mb 82f 82f
4:40am 6ft  -  5s 25 29 mph 1012.5mb 82f 82f
4:30am  -   -   -  22 29 mph 1012.5mb 82f 82f
4:20am  -   -   -  22 31 mph 1012.5mb - 82f
4:10am  -   -   -  25 31 mph 1012.5mb 82f 82f
4:00am  -   -   -  25 31 mph 1012.3mb 82f 82f
3:50am 6.5ft 7s 5s 25 36 mph 1012.1mb 82f 82f
3:40am 6.5ft  -  5s 27 31 mph 1012mb 82f 82f
3:30am  -   -   -  27 31 mph 1012mb 82f 82f
3:20am  -   -   -  25 31 mph 1012mb 82f 82f
3:10am  -   -   -  22 29 mph 1012.1mb 82f 82f
3:00am  -   -   -  25 29 mph 1012.3mb 82f 82f
2:50am 6.5ft 7s 5s 25 29 mph 1012mb 82f 82f
2:40am  -   -   -  25 29 mph 1012.1mb 82f 82f
2:30am  -   -   -  25 31 mph 1012.3mb 82f 82f
2:20am  -   -   -  25 31 mph 1012.3mb 82f 82f
2:10am  -   -   -  25 29 mph 1012.5mb 82f 82f
2:00am  -   -   -  25 31 mph 1012.6mb 82f 82f
1:50am 6ft 7s 5s 27 31 mph 1012.6mb 82f 82f
1:40am 6ft  -  5s 25 31 mph 1012.8mb - 82f
1:30am  -   -   -  27 31 mph 1012.9mb 82f 82f
1:20am  -   -   -  25 31 mph 1013mb 82f 82f
1:10am  -   -   -  25 31 mph 1013.1mb 82f 83f
1:00am  -   -   -  25 31 mph 1013.1mb 83f 83f
12:50am 6ft 7s 5s 25 29 mph 1013.3mb 83f 82f
12:40am 6ft  -  5s 25 29 mph 1013.4mb 83f 83f
12:30am  -   -   -  25 29 mph 1013.5mb 83f 83f
12:20am  -   -   -  22 27 mph 1013.5mb 83f 83f
12:10am  -   -   -  22 29 mph 1013.5mb 83f 83f
12:00am  -   -   -  22 29 mph 1013.4mb 83f 83f
Sun 07/23 11:50pm 6ft 7s 5s 22 29 mph 1013.4mb 83f 83f
11:40pm 6ft  -  5s 22 29 mph 1013.4mb 83f 83f
11:30pm  -   -   -  22 29 mph 1013.5mb 83f 83f
11:20pm  -   -   -  22 27 mph 1013.6mb 83f 83f
11:10pm  -   -   -  22 27 mph 1013.5mb 83f 83f
11:00pm  -   -   -  20 27 mph 1013.6mb 83f 83f
10:50pm 6ft 6s 5s 20 25 mph 1013.6mb 83f 83f
10:40pm 6ft  -  5s 22 27 mph 1013.5mb 83f 83f
10:30pm  -   -   -  22 27 mph 1013.4mb 83f 83f
10:20pm  -   -   -  22 27 mph 1013.4mb 83f 83f
10:10pm  -   -   -  22 27 mph 1013.4mb 84f 83f
10:00pm  -   -   -  22 27 mph 1013.4mb 83f 83f
9:50pm 6.5ft 6s 5s 25 29 mph 1013.3mb 83f 83f
9:40pm 6.5ft  -  5s 25 29 mph 1013mb 83f 83f
9:30pm  -   -   -  25 29 mph 1013mb 83f 83f
9:20pm  -   -   -  25 31 mph 1013mb 83f 83f
9:10pm  -   -   -  25 31 mph 1012.9mb 83f 83f
9:00pm  -   -   -  25 29 mph 1012.8mb 83f 83f
8:50pm 6.5ft  -  5s 25 31 mph 1012.9mb 83f 83f
8:40pm 6.5ft 6s 5s  -  mph - - -
8:30pm  -   -   -  27 31 mph 1012.9mb 83f 83f
8:20pm  -   -   -  25 29 mph 1013mb 84f 83f
8:10pm  -   -   -  25 29 mph 1013mb 84f 83f
8:00pm  -   -   -  25 29 mph 1013mb 84f 83f
7:50pm 6ft 6s 5s 25 31 mph 1012.8mb 84f 83f
7:40pm 6ft  -  5s 27 34 mph 1012.6mb 84f 83f
7:30pm  -   -   -  25 31 mph 1012.8mb 84f 83f
7:20pm  -   -   -  25 29 mph 1012.6mb 84f 83f
7:10pm  -   -   -  25 34 mph 1012.5mb 84f 83f
7:00pm  -   -   -  25 31 mph 1012.4mb 84f 83f
6:50pm 6ft 6s 5s 25 31 mph 1012.1mb 84f 83f
6:40pm 6ft  -  5s 25 31 mph 1012mb 84f 83f
6:30pm  -   -   -  25 31 mph 1011.9mb 84f 83f
6:20pm  -   -   -  25 31 mph 1011.5mb 84f 83f
6:10pm  -   -   -  25 29 mph 1011.4mb 84f 83f
6:00pm  -   -   -  22 27 mph 1011.5mb 84f 83f
5:50pm 5ft 6s 4s 25 29 mph 1011.4mb 84f 83f
5:40pm  -   -   -  25 29 mph 1011.1mb 84f 83f
5:30pm  -   -   -  25 29 mph 1011.4mb 84f 83f
5:20pm  -   -   -  25 31 mph 1011.4mb 84f 83f
5:10pm  -   -   -  25 31 mph 1011.5mb 84f 83f
5:00pm  -   -   -  25 31 mph 1011.6mb 84f 83f
4:50pm 5ft 6s 4s 25 31 mph 1012mb 84f 83f
4:40pm 5ft  -  4s 25 31 mph 1012mb 84f 83f
4:30pm  -   -   -  25 31 mph 1012.3mb 84f 83f
4:20pm  -   -   -  25 31 mph 1012.4mb 84f 83f
4:10pm  -   -   -  27 31 mph 1012.5mb 84f 83f
4:00pm  -   -   -  25 31 mph 1012.9mb 84f 83f
3:50pm 5ft 6s 5s 25 29 mph 1012.9mb 84f 83f
3:40pm 5ft  -  5s 22 29 mph 1013.1mb 84f 83f
3:30pm  -   -   -  25 29 mph 1013.3mb 84f 83f
3:20pm  -   -   -  25 29 mph 1013.3mb 84f 83f
3:10pm  -   -   -  22 27 mph 1013.3mb 84f 83f
3:00pm  -   -   -  22 29 mph 1013.5mb 84f 83f
2:50pm 4.5ft 6s 5s 22 27 mph 1013.5mb 84f 83f
2:40pm 4.5ft  -  5s 22 27 mph 1013.5mb 83f 83f
2:30pm  -   -   -  22 27 mph 1013.6mb 83f 83f
2:20pm  -   -   -  20 25 mph 1013.8mb 83f 83f
2:10pm  -   -   -  20 25 mph 1013.8mb 83f 83f
2:00pm  -   -   -  20 25 mph 1013.8mb 83f 83f
1:50pm 4.5ft 6s 5s 20 22 mph 1013.6mb 83f 83f
1:40pm  -   -   -  20 25 mph 1013.9mb 83f 83f
1:30pm  -   -   -  20 22 mph 1014mb 83f 83f
1:20pm  -   -   -  18 22 mph 1014mb 83f 83f
1:10pm  -   -   -  18 22 mph 1013.8mb 83f 83f
1:00pm  -   -   -  18 22 mph 1013.9mb 84f 83f
12:50pm 4.5ft 5s 4s 18 25 mph 1013.8mb 83f 83f
12:40pm 4.5ft  -  4s 18 22 mph 1013.9mb 83f 83f
12:30pm  -   -   -  20 22 mph 1014mb 84f 83f
12:20pm  -   -   -  20 22 mph 1014mb 84f 83f
12:10pm  -   -   -  18 22 mph 1014mb 83f 83f
12:00pm  -   -   -  20 22 mph 1014mb 84f 83f
11:50am 4.5ft 6s 4s 18 22 mph 1014mb 84f 83f
11:40am  -   -   -  20 22 mph 1014mb 83f 83f
11:30am  -   -   -  20 25 mph 1014mb 84f 83f
11:20am  -   -   -  20 25 mph 1014mb 83f 83f
11:10am  -   -   -  20 22 mph 1014.1mb 84f 83f
11:00am  -   -   -  20 25 mph 1014mb 84f 83f
10:50am 4ft 6s 4s 20 22 mph 1014.1mb 84f 83f
10:40am 4ft  -  4s 20 22 mph 1014.1mb 84f 83f
10:30am  -   -   -  20 25 mph 1014mb 84f 83f
10:20am  -   -   -  20 25 mph 1014.1mb 84f 83f
10:10am  -   -   -  20 25 mph 1014.1mb 84f 83f
10:00am  -   -   -  20 22 mph 1014.3mb 84f 83f
9:50am 4ft 6s 4s 20 25 mph 1014.3mb 84f 83f
9:40am 4ft  -  4s 20 25 mph 1014.4mb 84f 83f
9:30am  -   -   -  20 25 mph 1014.5mb 84f 83f
9:20am  -   -   -  20 22 mph 1014.5mb 84f 82f
9:10am  -   -   -  20 22 mph 1014.5mb 84f 82f
9:00am  -   -   -  20 25 mph 1014.3mb 84f 82f
8:50am 4.5ft 5s 4s 20 25 mph 1014.4mb 84f 82f
8:40am 4.5ft  -  4s 20 22 mph 1014.3mb 83f 82f
8:30am  -   -   -  20 25 mph 1014.4mb 83f 82f
8:20am  -   -   -  20 25 mph 1014.4mb 84f 82f
8:10am  -   -   -  20 25 mph 1014.1mb 84f 82f
8:00am  -   -   -  20 25 mph 1014.1mb 84f 82f
7:50am 4.5ft 6s 4s 20 25 mph 1014mb 84f 82f
7:40am  -   -   -  20 25 mph 1014mb 84f 82f
7:30am  -   -   -  20 25 mph 1014mb 84f 82f
7:20am  -   -   -  20 25 mph 1013.9mb 84f 82f
7:10am  -   -   -  20 27 mph 1014mb 84f 82f
7:00am  -   -   -  22 25 mph 1014mb 84f 82f
6:50am 5ft 5s 5s 22 27 mph 1013.9mb 84f 82f
6:40am 5ft  -  5s 22 27 mph 1013.8mb 84f 82f
6:30am  -   -   -  22 27 mph 1013.9mb 84f 82f
6:20am  -   -   -  22 27 mph 1013.8mb 83f 82f
6:10am  -   -   -  22 27 mph 1013.8mb - 83f
6:00am  -   -   -  22 27 mph 1013.8mb 83f 83f
5:50am 5ft 5s 4s 22 27 mph 1013.9mb 83f 83f
5:40am  -   -   -  22 27 mph 1013.6mb 83f 83f
5:30am  -   -   -  22 29 mph 1013.6mb 83f 83f
5:20am  -   -   -  22 27 mph 1013.5mb 84f 83f
5:10am  -   -   -  22 27 mph 1013.5mb 84f 83f
5:00am  -   -   -  22 27 mph 1013.5mb 84f 83f
4:50am 4.5ft 5s 4s 22 27 mph 1013.3mb 84f 83f
4:40am 4.5ft  -  4s 22 25 mph 1013.3mb 84f 83f
4:30am  -   -   -  22 27 mph 1013.3mb 84f 83f
4:20am  -   -   -  22 29 mph 1013.1mb 84f 83f
4:10am  -   -   -  22 27 mph 1013.3mb 84f 83f
4:00am  -   -   -  22 27 mph 1013.3mb 84f 83f
3:50am 5ft 6s 4s 22 27 mph 1013.4mb 84f 83f
3:40am 5ft  -  4s 22 25 mph 1013.4mb 84f 83f
3:30am  -   -   -  22 27 mph 1013.4mb 84f 83f
3:20am  -   -   -  22 27 mph 1013.4mb 84f 83f
3:10am  -   -   -  22 29 mph 1013.4mb 84f 83f
3:00am  -   -   -  22 27 mph 1013.3mb 84f 83f
2:50am 5ft 5s 5s 22 27 mph 1013.4mb 84f 83f
2:40am 5ft  -  5s 25 29 mph 1013.4mb 84f 83f
2:30am  -   -   -  22 27 mph 1013.5mb 84f 83f
2:20am  -   -   -  22 27 mph 1013.5mb 84f 83f
2:10am  -   -   -  22 27 mph 1013.5mb 84f 83f
2:00am  -   -   -  20 25 mph 1013.8mb 84f 83f
1:50am 5ft 5s 5s 20 25 mph 1013.8mb 84f 83f
1:40am  -   -   -  20 25 mph 1014mb 84f 83f
1:30am  -   -   -  22 27 mph 1014mb 84f 83f
1:20am  -   -   -  20 25 mph 1014mb 84f 83f
1:10am  -   -   -  22 27 mph 1014mb 84f 83f
1:00am  -   -   -  20 25 mph 1014mb 84f 83f
12:50am 4.5ft 5s 4s 22 27 mph 1014mb 84f 83f
12:40am  -   -   -  22 29 mph 1014.1mb 84f 83f
12:30am  -   -   -  25 29 mph 1014.3mb 84f 83f
12:20am  -   -   -  25 29 mph 1014.3mb 84f 83f
12:10am  -   -   -  22 27 mph 1014.1mb 84f 83f
12:00am  -   -   -  22 27 mph 1014mb 84f 83f
Sat 07/22 11:50pm 4ft 5s 4s 20 27 mph 1014.1mb 84f 83f
11:40pm  -   -   -  22 27 mph 1014.3mb 84f 83f
11:30pm  -   -   -  20 25 mph 1014.3mb 84f 83f
11:20pm  -   -   -  20 27 mph 1014.4mb 84f 83f
11:10pm  -   -   -  20 27 mph 1014.5mb 84f 83f
11:00pm  -   -   -  22 27 mph 1014.5mb 84f 83f
10:50pm 3.5ft 4s 4s 20 25 mph 1014.6mb 84f 83f
10:40pm 3.5ft  -  4s 20 25 mph 1014.6mb 84f 83f
10:30pm  -   -   -  20 25 mph 1014.6mb 84f 83f
10:20pm  -   -   -  20 25 mph 1014.8mb 84f 83f
10:10pm  -   -   -  20 25 mph 1014.6mb 84f 83f
10:00pm  -   -   -  20 25 mph 1014.8mb 84f 83f
9:50pm 3.5ft 4s 4s 20 27 mph 1014.6mb 84f 83f
9:40pm 3.5ft  -  4s 20 25 mph 1014.5mb 84f 83f
9:30pm  -   -   -  20 25 mph 1014.5mb 84f 83f
9:20pm  -   -   -  20 25 mph 1014.5mb 84f 83f
9:10pm  -   -   -  20 25 mph 1014.4mb 84f 83f
9:00pm  -   -   -  20 25 mph 1014.4mb 84f 83f
8:50pm 3ft 3s 4s 20 25 mph 1014.5mb 84f 83f
8:40pm 3ft  -  4s 22 27 mph 1014.5mb 84f 83f
8:30pm  -   -   -  22 25 mph 1014.5mb 84f 83f
8:20pm  -   -   -  20 25 mph 1014.4mb 84f 83f
8:10pm  -   -   -  20 25 mph 1014.3mb 84f 83f
8:00pm  -   -   -  20 25 mph 1014.4mb 84f 83f
7:50pm 3ft 8s 4s 20 25 mph 1014.1mb 84f 83f
7:40pm  -   -   -  20 25 mph 1014mb 84f 83f
7:30pm  -   -   -  20 22 mph 1014mb 84f 83f
7:20pm  -   -   -  20 22 mph 1014.1mb 84f 83f
7:10pm  -   -   -  20 22 mph 1014mb 84f 83f
7:00pm  -   -   -  20 22 mph 1014mb 84f 83f
6:50pm 3ft 9s 4s 18 22 mph 1013.9mb 84f 83f
6:40pm  -   -   -  18 20 mph 1013.8mb 84f 83f
6:30pm  -   -   -  18 20 mph 1013.8mb 84f 83f
6:20pm  -   -   -  18 20 mph 1013.9mb 84f 83f
6:10pm  -   -   -  18 20 mph 1014mb 84f 83f
6:00pm  -   -   -  16 20 mph 1014mb 84f 83f
5:50pm 2.5ft 10s 4s 16 18 mph 1014mb 84f 83f
5:40pm  -   -   -  16 18 mph 1013.9mb 84f 84f
5:30pm  -   -   -  16 18 mph 1014mb 84f 84f
5:20pm  -   -   -  16 18 mph 1013.9mb 84f 83f
5:10pm  -   -   -  16 20 mph 1014mb 84f 84f
5:00pm  -   -   -   -  mph 1014mb 84f -
4:50pm 2.5ft 8s 4s 18 20 mph 1014mb 84f 84f
4:40pm 2.5ft  -  4s 18 20 mph 1014mb 84f 84f
4:30pm  -   -   -  18 20 mph 1014mb 84f 84f
4:20pm  -   -   -  16 20 mph 1014.1mb 84f 84f
4:10pm  -   -   -  18 20 mph 1014.1mb 84f 84f
4:00pm  -   -   -  18 20 mph 1014.4mb 84f 84f
3:50pm 3ft 9s 5s 16 20 mph 1014.5mb 84f 83f
3:40pm 3ft  -  5s 16 20 mph 1014.8mb 84f 83f
3:30pm  -   -   -  16 20 mph 1015mb 84f 83f
3:20pm  -   -   -  16 18 mph 1015.4mb 84f 83f
3:10pm  -   -   -  16 18 mph 1015.5mb 84f 83f
3:00pm  -   -   -  13 18 mph 1015.5mb 84f 83f
2:50pm 2.5ft 10s 4s 16 18 mph 1015.5mb 84f 83f
2:40pm 2.5ft  -  4s 13 18 mph 1015.9mb 84f 83f
2:30pm  -   -   -  13 16 mph 1016mb - 83f
2:20pm  -   -   -  13 18 mph 1016.1mb 84f 83f
2:10pm  -   -   -  13 16 mph 1016.3mb 84f 83f
2:00pm  -   -   -  13 16 mph 1016.4mb 84f 83f
1:50pm 3ft 8s 5s 13 18 mph 1016.4mb 84f 83f
1:40pm  -   -   -  13 16 mph 1016.6mb 84f 83f
1:30pm  -   -   -  13 16 mph 1016.6mb 84f 83f
1:20pm  -   -   -  13 16 mph 1016.9mb 84f 83f
1:10pm  -   -   -  13 16 mph 1017mb 84f 83f
1:00pm  -   -   -  13 16 mph 1017.3mb 84f 83f
12:50pm 2.5ft 9s 5s 13 16 mph 1017.4mb 84f 83f
12:40pm 2.5ft  -  5s 13 18 mph 1017.4mb 84f 83f
12:30pm  -   -   -  13 16 mph 1017.5mb 84f 83f
12:20pm  -   -   -  13 18 mph 1017.5mb 84f 83f
12:10pm  -   -   -  13 16 mph 1017.5mb 84f 83f
12:00pm  -   -   -  13 18 mph 1017.5mb 84f 83f
11:50am 2.5ft 9s 4s 13 18 mph 1017.5mb 84f 83f
11:40am  -   -   -  13 16 mph 1017.5mb 84f 83f
11:30am  -   -   -  13 16 mph 1017.5mb 84f 83f
11:20am  -   -   -  13 18 mph 1017.5mb 84f 83f
11:10am  -   -   -  13 16 mph 1017.6mb 84f 83f
11:00am  -   -   -  13 18 mph 1017.8mb 84f 83f
10:50am 2.5ft 8s 5s 13 16 mph 1017.8mb 84f 83f
10:40am 2.5ft  -  5s 13 16 mph 1017.9mb 84f 83f
10:30am  -   -   -  13 16 mph 1017.8mb 84f 83f
10:20am  -   -   -  13 16 mph 1017.6mb 84f 83f
10:10am  -   -   -  13 16 mph 1017.5mb 84f 83f
10:00am  -   -   -  13 16 mph 1017.5mb 84f 83f
9:50am 2.5ft 9s 4s 13 16 mph 1017.5mb 84f 83f
9:40am 2.5ft  -  4s 13 16 mph 1017.5mb 84f 83f
9:30am  -   -   -  13 16 mph 1017.5mb 84f 83f
9:20am  -   -   -  13 16 mph 1017.4mb 83f 83f
9:10am  -   -   -  13 16 mph 1017.4mb 83f 83f
9:00am  -   -   -  13 16 mph 1017.3mb 83f 83f
8:50am 3ft 9s 4s 13 16 mph 1017.3mb 83f 83f
8:40am 3ft  -  4s 13 16 mph 1017mb 83f 83f
8:30am  -   -   -  13 16 mph 1017mb 83f 83f
8:20am  -   -   -  13 16 mph 1017mb 83f 83f
8:10am  -   -   -  13 16 mph 1017mb 83f 83f
8:00am  -   -   -  13 18 mph 1016.8mb 83f 83f
7:50am 3ft 5s 4s 16 18 mph 1016.6mb 83f 83f
7:40am 3ft  -  4s 16 18 mph 1016.5mb 83f 83f
7:30am  -   -   -  16 18 mph 1016.4mb 83f 83f
7:20am  -   -   -  16 18 mph 1016.3mb 83f 83f
7:10am  -   -   -  16 18 mph 1016.1mb 83f 83f
7:00am  -   -   -  16 20 mph 1015.9mb 83f 83f
6:50am 3.5ft 8s 4s 16 18 mph 1015.9mb 83f 83f
6:40am 3.5ft  -  4s 16 18 mph 1015.9mb 83f 83f
6:30am  -   -   -  16 18 mph 1015.9mb 83f 83f
6:20am  -   -   -  16 18 mph 1016mb 83f 83f
6:10am  -   -   -  16 18 mph 1015.9mb 83f 83f
6:00am  -   -   -  16 18 mph 1015.8mb 83f 83f
5:50am 3ft 4s 4s 16 20 mph 1015.6mb 83f 83f
5:40am  -   -   -  16 20 mph 1015.5mb 83f 83f
5:30am  -   -   -  18 20 mph 1015.5mb 83f 83f
5:20am  -   -   -  18 20 mph 1015.6mb 83f 83f
5:10am  -   -   -  16 20 mph 1015.6mb 83f 83f
5:00am  -   -   -  16 18 mph 1015.5mb 83f 83f
4:50am 3ft 4s 4s 16 20 mph 1015.4mb 83f 83f
4:40am 3ft  -  4s 16 18 mph 1015.4mb 83f 83f
4:30am  -   -   -  18 20 mph 1015.4mb 83f 83f
4:20am  -   -   -  18 20 mph 1015.4mb 83f 83f
4:10am  -   -   -  18 20 mph 1015.4mb 83f 83f
4:00am  -   -   -  16 20 mph 1015.5mb 83f 83f
3:50am 3ft 4s 4s 16 18 mph 1015.4mb - 83f
3:40am  -   -   -  16 18 mph 1015.5mb 83f 83f
3:30am  -   -   -  13 18 mph 1015.5mb 83f 83f
3:20am  -   -   -  13 18 mph 1015.5mb 83f 83f
3:10am  -   -   -  13 18 mph 1015.5mb 83f 83f
3:00am  -   -   -  16 18 mph 1015.5mb 83f 83f
2:50am 3.5ft 5s 4s 16 18 mph 1015.6mb 83f 83f
2:40am  -   -   -  16 18 mph 1015.8mb 83f 83f
2:30am  -   -   -  16 18 mph 1015.9mb 83f 83f
2:20am  -   -   -  16 20 mph 1015.9mb 83f 83f
2:10am  -   -   -  18 20 mph 1016mb 83f 83f
2:00am  -   -   -  16 20 mph 1016.1mb 83f 83f
1:50am 3.5ft 4s 4s 18 20 mph 1016.3mb 83f 83f
1:40am 3.5ft  -  4s 18 20 mph 1016.4mb 83f 83f
1:30am  -   -   -  16 20 mph 1016.4mb 83f 83f
1:20am  -   -   -  16 22 mph 1016.4mb 83f 83f
1:10am  -   -   -  18 20 mph 1016.4mb 83f 83f
1:00am  -   -   -  18 20 mph 1016.4mb 83f 83f
12:50am 3.5ft 4s 4s 16 20 mph 1016.5mb 83f 83f
12:40am 3.5ft  -  4s 18 20 mph 1016.5mb 83f 83f
12:30am  -   -   -  18 20 mph 1016.5mb 83f 83f
12:20am  -   -   -  18 20 mph 1016.5mb 83f 83f
12:10am  -   -   -  18 20 mph 1016.5mb 83f 83f
12:00am  -   -   -  18 20 mph 1016.5mb 83f 83f
Fri 07/21 11:50pm 3.5ft 4s 4s 16 20 mph 1016.5mb 84f 83f
11:40pm 3.5ft  -  4s 18 22 mph 1016.5mb 84f 83f
11:30pm  -   -   -  18 20 mph 1016.5mb 84f 83f
11:20pm  -   -   -  18 22 mph 1016.6mb 84f 83f
11:10pm  -   -   -  18 22 mph 1016.6mb 84f 83f
11:00pm  -   -   -  18 22 mph 1016.9mb 84f 83f
10:50pm 3.5ft 7s 4s 18 22 mph 1016.8mb 84f 83f
10:40pm 3.5ft  -  4s 18 20 mph 1016.9mb 84f 83f
10:30pm  -   -   -  18 22 mph 1016.9mb 84f 83f
10:20pm  -   -   -  18 22 mph 1016.8mb 84f 83f